Terminal Aerodrome Forecast
Issued by NWS

Home | Current Version | Previous Version | Text Only | Print | Product List | Glossary On
Versions: 1 2 3 4 5 6 7 8 9 10 11 12 13 14 15
256
FTPA31 PHFO 272329
TAFHOG
TAF
PHOG 272329Z 2800/2824 07015G22KT P6SM SCT050
     FM280500 07008KT P6SM SCT050
     FM281000 12006KT P6SM FEW050
     FM282000 07015G22KT P6SM SCT050
      AMD LTD TO VIS AND WIND 2809/2816=

USA.gov is the U.S. government's official web portal to all federal, state and local government web resources and services.